Time;durP1;ratioP1;P1;durP2;ratioP2;P2;SDS_P1;SDS_P2;PMS_P1;PMS_P2;Temp;Humidity;BMP_temperature;BMP_pressure;BME280_temperature;BME280_humidity;BME280_pressure;Samples;Min_cycle;Max_cycle;Signal;HPM_P1;HPM_P2
2021/09/05 00:02:21;;;;;;;17.47;11.50;;;14.80;99.90;;;;;;5079741;28;20918;-71
2021/09/05 00:04:48;;;;;;;18.80;13.83;;;14.70;99.90;;;;;;5079725;28;20492;-71
2021/09/05 00:07:14;;;;;;;14.03;11.00;;;14.70;99.90;;;;;;5078779;28;20790;-71
2021/09/05 00:09:42;;;;;;;16.60;11.40;;;14.70;99.90;;;;;;5079182;28;20458;-71
2021/09/05 00:12:09;;;;;;;15.40;10.60;;;14.70;99.90;;;;;;5081526;28;20466;-71
2021/09/05 00:14:36;;;;;;;18.50;10.80;;;14.60;99.90;;;;;;5080136;28;20454;-70
2021/09/05 00:17:05;;;;;;;14.43;11.17;;;14.60;99.90;;;;;;5079841;28;20468;-70
2021/09/05 00:19:33;;;;;;;22.80;12.63;;;14.60;99.90;;;;;;5079508;28;20800;-70
2021/09/05 00:22:00;;;;;;;14.73;10.77;;;14.50;99.90;;;;;;5079575;28;20455;-70
2021/09/05 00:24:27;;;;;;;17.30;11.87;;;14.50;99.90;;;;;;5080166;28;20458;-70
2021/09/05 00:26:55;;;;;;;18.05;12.20;;;14.50;99.90;;;;;;5079699;28;20457;-70
2021/09/05 00:29:25;;;;;;;20.50;11.37;;;14.40;99.90;;;;;;5080150;28;20196;-70
2021/09/05 00:31:52;;;;;;;16.80;12.20;;;14.40;99.90;;;;;;5079574;28;20458;-70
2021/09/05 00:34:20;;;;;;;15.40;11.03;;;14.50;99.90;;;;;;5078589;28;20458;-70
2021/09/05 00:36:47;;;;;;;15.97;11.40;;;14.40;99.90;;;;;;5078974;28;20918;-70
2021/09/05 00:39:14;;;;;;;16.43;11.50;;;14.40;99.90;;;;;;5078389;28;20485;-70
2021/09/05 00:41:40;;;;;;;17.23;12.60;;;14.40;99.90;;;;;;5078261;28;20490;-71
2021/09/05 00:44:08;;;;;;;13.57;11.23;;;14.30;99.90;;;;;;5078660;28;20462;-71
2021/09/05 00:46:36;;;;;;;17.57;12.10;;;14.30;99.90;;;;;;5078015;28;20454;-70
2021/09/05 00:49:04;;;;;;;15.73;12.17;;;14.30;99.90;;;;;;5078653;28;20465;-71
2021/09/05 00:51:34;;;;;;;17.07;11.73;;;14.30;99.90;;;;;;5078580;28;20472;-71
2021/09/05 00:54:07;;;;;;;23.83;13.17;;;14.30;99.90;;;;;;5078425;28;20459;-70
2021/09/05 00:56:38;;;;;;;17.20;12.13;;;14.30;99.90;;;;;;5077424;28;20902;-71
2021/09/05 00:59:07;;;;;;;19.50;11.90;;;14.20;99.90;;;;;;5078374;28;20466;-71
2021/09/05 01:01:34;;;;;;;16.07;11.67;;;14.20;99.90;;;;;;5077449;28;20454;-71
2021/09/05 01:04:00;;;;;;;17.93;11.97;;;14.20;99.90;;;;;;5078031;28;20473;-71
2021/09/05 01:06:27;;;;;;;16.87;12.07;;;14.10;99.90;;;;;;5077533;28;20458;-70
2021/09/05 01:08:57;;;;;;;16.60;11.13;;;14.10;99.90;;;;;;5078206;28;20816;-71
2021/09/05 01:11:24;;;;;;;17.93;13.07;;;14.10;99.90;;;;;;5077496;28;20450;-70
2021/09/05 01:13:52;;;;;;;15.93;12.80;;;14.10;99.90;;;;;;5077414;28;20462;-70
2021/09/05 01:16:26;;;;;;;15.10;12.03;;;14.10;99.90;;;;;;5076882;28;20787;-72
2021/09/05 01:18:53;;;;;;;16.43;11.93;;;14.00;99.90;;;;;;5077693;28;20573;-70
2021/09/05 01:21:20;;;;;;;19.33;14.18;;;14.00;99.90;;;;;;5077246;28;20486;-71
2021/09/05 01:23:49;;;;;;;16.63;12.77;;;14.00;99.90;;;;;;5077318;28;20512;-71
2021/09/05 01:26:18;;;;;;;18.07;13.17;;;14.10;99.90;;;;;;5078417;28;20787;-70
2021/09/05 01:28:46;;;;;;;15.60;11.88;;;14.00;99.90;;;;;;5077642;28;20454;-71
2021/09/05 01:31:13;;;;;;;15.50;12.13;;;14.10;99.90;;;;;;5077853;28;20259;-70
2021/09/05 01:33:40;;;;;;;18.30;13.40;;;14.10;99.90;;;;;;5077656;28;20490;-70
2021/09/05 01:36:07;;;;;;;20.03;12.80;;;14.10;99.90;;;;;;5078065;28;20465;-70
2021/09/05 01:38:33;;;;;;;18.77;12.80;;;14.10;99.90;;;;;;5076615;28;20482;-71
2021/09/05 01:41:03;;;;;;;18.70;13.00;;;14.00;99.90;;;;;;5077008;28;20478;-71
2021/09/05 01:43:30;;;;;;;19.93;12.40;;;14.00;99.90;;;;;;5077141;28;20531;-71
2021/09/05 01:45:58;;;;;;;18.70;13.03;;;14.00;99.90;;;;;;5076808;28;20544;-71
2021/09/05 01:48:25;;;;;;;19.47;13.43;;;14.00;99.90;;;;;;5077274;28;20458;-71
2021/09/05 01:50:52;;;;;;;16.90;12.30;;;13.90;99.90;;;;;;5076835;28;20828;-71
2021/09/05 01:53:18;;;;;;;16.53;12.83;;;13.90;99.90;;;;;;5077939;28;20465;-70
2021/09/05 01:55:45;;;;;;;17.70;13.03;;;13.90;99.90;;;;;;5078317;28;20458;-70
2021/09/05 01:58:12;;;;;;;19.40;12.60;;;13.90;99.90;;;;;;5077281;28;20482;-70
2021/09/05 02:00:39;;;;;;;18.57;13.17;;;13.80;99.90;;;;;;5078151;28;20458;-71
2021/09/05 02:03:07;;;;;;;16.90;11.87;;;13.80;99.90;;;;;;5077524;28;20462;-70
2021/09/05 02:05:34;;;;;;;17.50;13.20;;;13.80;99.90;;;;;;5076911;28;20450;-70
2021/09/05 02:08:01;;;;;;;20.17;13.63;;;13.80;99.90;;;;;;5077343;28;20458;-70
2021/09/05 02:10:28;;;;;;;21.05;13.27;;;13.80;99.90;;;;;;5077637;28;20469;-70
2021/09/05 02:12:59;;;;;;;21.17;13.90;;;13.90;99.90;;;;;;5076741;28;20275;-70
2021/09/05 02:15:26;;;;;;;18.07;12.80;;;14.00;99.90;;;;;;5077659;28;20442;-70
2021/09/05 02:17:52;;;;;;;22.80;14.90;;;14.00;99.90;;;;;;5076840;28;20486;-70
2021/09/05 02:20:20;;;;;;;19.87;14.00;;;14.10;99.90;;;;;;5077148;28;20458;-70
2021/09/05 02:22:47;;;;;;;22.30;14.80;;;14.10;99.90;;;;;;5076710;28;20794;-70
2021/09/05 02:25:14;;;;;;;18.52;13.38;;;14.20;99.90;;;;;;5076270;28;20462;-70
2021/09/05 02:27:41;;;;;;;21.27;14.23;;;14.20;99.90;;;;;;5077058;28;20211;-70
2021/09/05 02:30:10;;;;;;;20.40;13.50;;;14.30;99.90;;;;;;5077134;28;20458;-70
2021/09/05 02:32:37;;;;;;;19.60;14.17;;;14.30;99.90;;;;;;5077540;28;20516;-71
2021/09/05 02:35:05;;;;;;;17.70;12.90;;;14.40;99.90;;;;;;5077012;28;20792;-71
2021/09/05 02:37:35;;;;;;;17.60;14.00;;;14.40;99.90;;;;;;5077033;28;20655;-71
2021/09/05 02:40:02;;;;;;;20.87;14.27;;;14.50;99.90;;;;;;5076959;28;20846;-71
2021/09/05 02:42:29;;;;;;;18.60;13.40;;;14.50;99.90;;;;;;5077424;28;20781;-69
2021/09/05 02:44:55;;;;;;;22.00;14.17;;;14.60;99.90;;;;;;5077208;28;20798;-70
2021/09/05 02:47:24;;;;;;;22.23;14.97;;;14.60;99.90;;;;;;5076482;28;20458;-71
2021/09/05 02:49:51;;;;;;;25.35;15.65;;;14.60;99.90;;;;;;5076195;28;20454;-70
2021/09/05 02:52:17;;;;;;;24.67;16.17;;;14.50;99.90;;;;;;5076747;28;20641;-70
2021/09/05 02:54:46;;;;;;;22.73;15.87;;;14.60;99.90;;;;;;5076808;28;20454;-71
2021/09/05 02:57:12;;;;;;;23.33;15.83;;;14.60;99.90;;;;;;5076265;28;20481;-71
2021/09/05 02:59:39;;;;;;;23.60;17.70;;;14.60;99.90;;;;;;5076969;28;20493;-71
2021/09/05 03:02:06;;;;;;;24.20;16.23;;;14.60;99.90;;;;;;5077026;28;20204;-71
2021/09/05 03:04:33;;;;;;;30.23;17.10;;;14.60;99.90;;;;;;5076843;28;20203;-71
2021/09/05 03:07:03;;;;;;;27.60;18.27;;;14.70;99.90;;;;;;5079262;28;20913;-72
2021/09/05 03:09:30;;;;;;;30.17;17.50;;;14.70;99.90;;;;;;5078294;28;20469;-72
2021/09/05 03:11:59;;;;;;;28.43;19.90;;;14.70;99.90;;;;;;5077167;28;20458;-71
2021/09/05 03:14:26;;;;;;;29.47;19.03;;;14.80;99.90;;;;;;5077315;28;20778;-71
2021/09/05 03:16:53;;;;;;;28.20;19.83;;;14.80;99.90;;;;;;5080198;28;20458;-71
2021/09/05 03:19:20;;;;;;;29.40;19.60;;;14.80;99.90;;;;;;5081909;28;20536;-71
2021/09/05 03:21:51;;;;;;;33.80;21.10;;;14.80;99.90;;;;;;5082664;28;20462;-73
2021/09/05 03:24:17;;;;;;;36.80;21.67;;;14.80;99.90;;;;;;5080484;28;20512;-71
2021/09/05 03:26:44;;;;;;;31.00;20.73;;;14.80;99.90;;;;;;5081058;28;20451;-71
2021/09/05 03:29:12;;;;;;;31.37;21.13;;;14.80;99.90;;;;;;5080545;28;20953;-71
2021/09/05 03:31:42;;;;;;;30.53;19.50;;;14.70;99.90;;;;;;5081959;28;20520;-71
2021/09/05 03:34:09;;;;;;;29.43;19.03;;;14.70;99.90;;;;;;5082907;28;20481;-71
2021/09/05 03:36:35;;;;;;;26.17;18.90;;;14.80;99.90;;;;;;5080261;28;20450;-71
2021/09/05 03:39:02;;;;;;;29.57;19.17;;;14.70;99.90;;;;;;5080954;28;20488;-71
2021/09/05 03:41:29;;;;;;;26.50;18.40;;;14.70;99.90;;;;;;5081402;28;20885;-71
2021/09/05 03:43:58;;;;;;;28.77;19.50;;;14.70;99.90;;;;;;5080923;28;20458;-71
2021/09/05 03:46:26;;;;;;;28.70;17.80;;;14.60;99.90;;;;;;5079127;28;20740;-71
2021/09/05 03:48:52;;;;;;;25.27;17.60;;;14.60;99.90;;;;;;5079063;28;20461;-71
2021/09/05 03:51:19;;;;;;;24.80;16.30;;;14.60;99.90;;;;;;5078918;28;20754;-72
2021/09/05 03:53:46;;;;;;;24.95;16.40;;;14.60;99.90;;;;;;5079480;28;20207;-71
2021/09/05 03:56:12;;;;;;;24.97;16.70;;;14.60;99.90;;;;;;5079072;28;20211;-72
2021/09/05 03:58:39;;;;;;;21.30;16.33;;;14.60;99.90;;;;;;5078799;28;20465;-72
2021/09/05 04:01:06;;;;;;;18.40;15.27;;;14.50;99.90;;;;;;5079128;28;20466;-72
2021/09/05 04:03:34;;;;;;;23.15;16.27;;;14.40;99.90;;;;;;5078530;28;20902;-72
2021/09/05 04:06:03;;;;;;;20.70;15.50;;;14.40;99.90;;;;;;5078127;28;20210;-72
2021/09/05 04:08:38;;;;;;;20.57;14.40;;;14.40;99.90;;;;;;5078544;28;20465;-71
2021/09/05 04:11:05;;;;;;;19.83;14.55;;;14.30;99.90;;;;;;5078837;28;20515;-71
2021/09/05 04:13:32;;;;;;;15.93;11.90;;;14.30;99.90;;;;;;5078534;28;20200;-71
2021/09/05 04:15:58;;;;;;;19.92;14.57;;;14.20;99.90;;;;;;5079244;28;20493;-71
2021/09/05 04:18:27;;;;;;;17.15;13.77;;;14.20;99.90;;;;;;5078580;28;20319;-71
2021/09/05 04:20:55;;;;;;;20.27;13.73;;;14.20;99.90;;;;;;5078875;28;20227;-71
2021/09/05 04:23:21;;;;;;;18.33;13.53;;;14.20;99.90;;;;;;5079128;28;20462;-71
2021/09/05 04:25:48;;;;;;;17.90;13.33;;;14.10;99.90;;;;;;5078950;28;20450;-71
2021/09/05 04:28:15;;;;;;;16.60;12.50;;;14.00;99.90;;;;;;5078216;28;20458;-70
2021/09/05 04:30:42;;;;;;;20.00;12.80;;;14.00;99.90;;;;;;5078370;28;20957;-69
2021/09/05 04:33:10;;;;;;;16.27;12.47;;;14.00;99.90;;;;;;5078188;28;20200;-70
2021/09/05 04:35:37;;;;;;;19.97;12.87;;;14.00;99.90;;;;;;5078869;28;20453;-70
2021/09/05 04:38:05;;;;;;;17.30;13.00;;;14.00;99.90;;;;;;5078237;28;20523;-71
2021/09/05 04:40:32;;;;;;;19.27;13.60;;;14.00;99.90;;;;;;5078544;28;20946;-72
2021/09/05 04:42:58;;;;;;;17.40;12.52;;;14.00;99.90;;;;;;5078594;28;20458;-71
2021/09/05 04:45:25;;;;;;;16.53;12.47;;;14.00;99.90;;;;;;5078367;28;20207;-71
2021/09/05 04:47:52;;;;;;;19.93;12.40;;;14.10;99.90;;;;;;5077699;28;20780;-71
2021/09/05 04:50:19;;;;;;;16.97;12.67;;;14.10;99.90;;;;;;5078016;28;20458;-71
2021/09/05 04:52:47;;;;;;;16.27;12.15;;;14.10;99.90;;;;;;5078170;28;20461;-71
2021/09/05 04:55:15;;;;;;;18.17;12.38;;;14.10;99.90;;;;;;5077981;28;20262;-71
2021/09/05 04:57:42;;;;;;;19.00;12.73;;;14.20;99.90;;;;;;5078168;28;20552;-71
2021/09/05 05:00:09;;;;;;;17.08;12.20;;;14.30;99.90;;;;;;5077685;28;20508;-71
2021/09/05 05:02:36;;;;;;;16.90;12.10;;;14.40;99.90;;;;;;5077284;28;20220;-71
2021/09/05 05:05:03;;;;;;;16.63;11.80;;;14.40;99.90;;;;;;5077524;28;20454;-71
2021/09/05 05:07:31;;;;;;;16.53;12.23;;;14.50;99.90;;;;;;5077442;28;20473;-71
2021/09/05 05:09:57;;;;;;;18.15;12.07;;;14.50;99.90;;;;;;5077321;28;20899;-71
2021/09/05 05:12:25;;;;;;;19.23;12.50;;;14.60;99.90;;;;;;5076940;28;20200;-71
2021/09/05 05:14:54;;;;;;;14.83;10.60;;;14.60;99.90;;;;;;5077165;28;20454;-71
2021/09/05 05:17:21;;;;;;;15.50;11.67;;;14.70;99.90;;;;;;5076991;28;20772;-71
2021/09/05 05:19:48;;;;;;;14.57;11.07;;;14.70;99.90;;;;;;5076451;28;20474;-71
2021/09/05 05:22:15;;;;;;;16.33;11.30;;;14.70;99.90;;;;;;5076439;28;20458;-71
2021/09/05 05:24:43;;;;;;;12.23;10.27;;;14.70;99.90;;;;;;5077127;28;20470;-71
2021/09/05 05:27:09;;;;;;;17.17;11.00;;;14.80;99.90;;;;;;5076582;28;20494;-71
2021/09/05 05:29:37;;;;;;;15.10;10.67;;;14.80;99.90;;;;;;5076724;28;20446;-71
2021/09/05 05:32:05;;;;;;;13.03;9.93;;;14.80;99.90;;;;;;5075974;28;20459;-72
2021/09/05 05:34:32;;;;;;;14.23;10.60;;;14.80;99.90;;;;;;5075241;28;20461;-73
2021/09/05 05:37:01;;;;;;;12.97;9.60;;;14.80;99.90;;;;;;5075096;28;20454;-72
2021/09/05 05:39:28;;;;;;;12.70;9.70;;;14.90;99.90;;;;;;5074184;28;20474;-72
2021/09/05 05:41:55;;;;;;;15.40;9.30;;;14.90;99.90;;;;;;5075312;28;20487;-73
2021/09/05 05:44:24;;;;;;;11.90;8.53;;;14.90;99.90;;;;;;5075242;28;20793;-72
2021/09/05 05:46:52;;;;;;;12.57;9.10;;;15.00;99.90;;;;;;5074998;28;20454;-73
2021/09/05 05:49:22;;;;;;;10.50;7.90;;;15.00;99.90;;;;;;5074907;28;20485;-73
2021/09/05 05:51:51;;;;;;;12.50;7.77;;;15.00;99.90;;;;;;5074659;28;20757;-72
2021/09/05 05:54:21;;;;;;;14.30;9.43;;;15.10;99.90;;;;;;5074946;28;20519;-73
2021/09/05 05:56:48;;;;;;;10.13;8.03;;;15.10;99.90;;;;;;5074752;28;20753;-72
2021/09/05 05:59:16;;;;;;;9.43;7.70;;;15.10;99.90;;;;;;5074673;28;20458;-72
2021/09/05 06:01:43;;;;;;;11.53;7.80;;;15.10;99.90;;;;;;5075053;28;20763;-73
2021/09/05 06:04:11;;;;;;;9.07;7.00;;;15.20;99.90;;;;;;5074575;28;20906;-73
2021/09/05 06:06:39;;;;;;;9.20;7.20;;;15.30;99.90;;;;;;5074931;28;20450;-73
2021/09/05 06:09:06;;;;;;;9.13;6.90;;;15.30;99.90;;;;;;5074745;28;20461;-73
2021/09/05 06:11:33;;;;;;;8.67;6.40;;;15.40;99.90;;;;;;5074688;28;20461;-73
2021/09/05 06:14:00;;;;;;;7.60;6.03;;;15.40;99.90;;;;;;5074450;28;20454;-73
2021/09/05 06:16:28;;;;;;;9.23;6.50;;;15.50;99.90;;;;;;5074755;28;20208;-72
2021/09/05 06:18:55;;;;;;;7.90;6.07;;;15.50;99.90;;;;;;5074586;28;20752;-73
2021/09/05 06:21:23;;;;;;;8.93;6.10;;;15.60;99.90;;;;;;5074453;28;20478;-73
2021/09/05 06:23:53;;;;;;;9.50;6.60;;;15.60;99.90;;;;;;5074545;28;20207;-73
2021/09/05 06:26:20;;;;;;;8.23;5.93;;;15.70;99.90;;;;;;5074588;28;20465;-74
2021/09/05 06:28:46;;;;;;;8.17;5.60;;;15.70;99.90;;;;;;5074731;28;20823;-73
2021/09/05 06:31:13;;;;;;;13.82;5.80;;;15.70;99.90;;;;;;5074416;28;20521;-73
2021/09/05 06:33:40;;;;;;;5.60;4.93;;;15.80;99.90;;;;;;5074973;28;20208;-74
2021/09/05 06:36:09;;;;;;;6.27;5.40;;;15.80;99.90;;;;;;5074512;28;20462;-73
2021/09/05 06:38:37;;;;;;;7.27;5.10;;;15.90;99.90;;;;;;5074390;28;20953;-73
2021/09/05 06:41:03;;;;;;;6.27;5.07;;;15.90;99.90;;;;;;5073959;28;20497;-73
2021/09/05 06:43:30;;;;;;;6.03;5.37;;;16.00;99.90;;;;;;5074635;28;20465;-73
2021/09/05 06:45:57;;;;;;;5.80;4.63;;;16.10;99.90;;;;;;5074101;28;20778;-73
2021/09/05 06:48:23;;;;;;;6.43;5.27;;;16.10;99.90;;;;;;5074441;28;20480;-73
2021/09/05 06:50:50;;;;;;;5.40;4.70;;;16.20;99.90;;;;;;5076562;28;20465;-72
2021/09/05 06:53:17;;;;;;;7.77;5.27;;;16.20;99.90;;;;;;5078383;28;20458;-73
2021/09/05 06:55:46;;;;;;;11.13;5.25;;;16.30;99.90;;;;;;5078579;28;20462;-74
2021/09/05 06:58:15;;;;;;;6.90;4.90;;;16.30;99.90;;;;;;5077966;28;20547;-74
2021/09/05 07:00:41;;;;;;;7.07;5.00;;;16.40;99.90;;;;;;5077353;28;20970;-72
2021/09/05 07:03:08;;;;;;;7.22;5.28;;;16.50;99.90;;;;;;5077974;28;20464;-72
2021/09/05 07:05:36;;;;;;;9.93;5.13;;;16.50;99.90;;;;;;5078221;28;20196;-74
2021/09/05 07:08:02;;;;;;;6.77;5.20;;;16.60;99.90;;;;;;5077755;28;20204;-73
2021/09/05 07:10:29;;;;;;;7.17;4.60;;;16.60;99.90;;;;;;5077989;28;20457;-72
2021/09/05 07:12:57;;;;;;;6.70;4.97;;;16.50;99.90;;;;;;5077524;28;20450;-73
2021/09/05 07:15:24;;;;;;;6.67;5.10;;;16.50;99.90;;;;;;5077578;28;20465;-72
2021/09/05 07:17:51;;;;;;;5.90;4.73;;;16.40;99.90;;;;;;5077699;28;20507;-72
2021/09/05 07:20:17;;;;;;;6.40;5.00;;;16.40;99.90;;;;;;5077346;28;20485;-72
2021/09/05 07:22:44;;;;;;;6.20;4.93;;;16.40;99.90;;;;;;5077286;28;20782;-73
2021/09/05 07:25:12;;;;;;;7.40;4.60;;;16.30;99.90;;;;;;5077228;28;20457;-73
2021/09/05 07:27:39;;;;;;;10.43;5.20;;;16.30;99.90;;;;;;5077617;28;20541;-73
2021/09/05 07:30:09;;;;;;;8.87;6.10;;;16.30;99.90;;;;;;5078012;28;20480;-73
2021/09/05 07:32:35;;;;;;;6.95;5.38;;;16.30;99.90;;;;;;5077146;28;20485;-73
2021/09/05 07:35:02;;;;;;;7.60;5.30;;;16.30;99.90;;;;;;5077178;28;20205;-72
2021/09/05 07:37:29;;;;;;;8.00;4.80;;;16.30;99.90;;;;;;5076740;28;20919;-73
2021/09/05 07:39:56;;;;;;;9.57;6.23;;;16.40;99.90;;;;;;5076800;28;20519;-72
2021/09/05 07:42:22;;;;;;;7.40;5.53;;;16.40;99.90;;;;;;5076515;28;20862;-73
2021/09/05 07:44:49;;;;;;;8.23;5.87;;;16.40;99.90;;;;;;5076947;28;20515;-73
2021/09/05 07:47:17;;;;;;;11.60;5.68;;;16.50;99.90;;;;;;5077036;28;20458;-73
2021/09/05 07:49:44;;;;;;;10.73;5.33;;;16.40;99.90;;;;;;5076675;28;20204;-72
2021/09/05 07:52:11;;;;;;;7.13;5.50;;;16.60;99.90;;;;;;5077239;28;20915;-73
2021/09/05 07:54:37;;;;;;;8.43;5.20;;;16.70;99.90;;;;;;5077033;28;20466;-73
2021/09/05 07:57:04;;;;;;;9.23;5.37;;;16.70;99.90;;;;;;5076318;28;20938;-73
2021/09/05 07:59:31;;;;;;;8.20;5.87;;;16.90;99.90;;;;;;5077139;28;20463;-72
2021/09/05 08:02:00;;;;;;;12.73;5.82;;;17.10;99.90;;;;;;5075358;28;20478;-73
2021/09/05 08:04:28;;;;;;;7.43;5.37;;;17.20;99.90;;;;;;5076588;28;20266;-73
2021/09/05 08:06:54;;;;;;;9.60;5.90;;;17.40;99.90;;;;;;5076665;28;20459;-74
2021/09/05 08:09:21;;;;;;;8.07;5.87;;;17.50;99.90;;;;;;5076234;28;20766;-74
2021/09/05 08:11:48;;;;;;;7.32;5.80;;;17.60;99.90;;;;;;5076112;28;20454;-74
2021/09/05 08:14:15;;;;;;;7.27;6.13;;;17.80;99.90;;;;;;5075947;28;20208;-72
2021/09/05 08:16:42;;;;;;;6.90;5.70;;;18.10;99.90;;;;;;5076023;28;20580;-72
2021/09/05 08:19:08;;;;;;;7.83;5.50;;;18.20;99.90;;;;;;5076377;28;20790;-70
2021/09/05 08:21:36;;;;;;;7.20;5.90;;;18.30;99.90;;;;;;5075774;28;20539;-71
2021/09/05 08:24:05;;;;;;;8.47;6.57;;;18.50;99.90;;;;;;5076071;28;20866;-71
2021/09/05 08:26:32;;;;;;;7.82;5.68;;;18.60;99.90;;;;;;5075970;28;20544;-71
2021/09/05 08:28:58;;;;;;;7.30;5.30;;;18.80;99.90;;;;;;5076144;28;20540;-71
2021/09/05 08:31:28;;;;;;;7.17;5.30;;;18.90;99.90;;;;;;5075773;28;20454;-71
2021/09/05 08:33:56;;;;;;;7.37;5.10;;;19.00;99.90;;;;;;5076203;28;20458;-71
2021/09/05 08:36:23;;;;;;;7.40;5.57;;;19.10;99.90;;;;;;5076167;28;20466;-71
2021/09/05 08:38:51;;;;;;;8.13;5.63;;;19.10;99.90;;;;;;5076098;28;20458;-70
2021/09/05 08:41:18;;;;;;;7.50;5.17;;;19.20;99.90;;;;;;5075866;28;20246;-71
2021/09/05 08:43:45;;;;;;;7.43;6.00;;;19.20;99.90;;;;;;5075241;28;20462;-72
2021/09/05 08:46:13;;;;;;;12.47;5.87;;;19.20;99.90;;;;;;5076121;28;20535;-71
2021/09/05 08:48:44;;;;;;;6.88;5.50;;;19.10;99.90;;;;;;5075542;28;20534;-71
2021/09/05 08:51:12;;;;;;;9.37;5.97;;;19.20;99.90;;;;;;5075794;28;20245;-71
2021/09/05 08:53:39;;;;;;;11.43;7.00;;;19.20;99.90;;;;;;5076117;28;20458;-72
2021/09/05 08:56:09;;;;;;;9.90;6.40;;;19.30;99.90;;;;;;5075387;28;20899;-71
2021/09/05 08:58:36;;;;;;;10.23;6.40;;;19.40;99.90;;;;;;5075685;28;20800;-71
2021/09/05 09:01:16;;;;;;;11.17;7.10;;;19.40;99.90;;;;;;5075628;28;20478;-72
2021/09/05 09:03:44;;;;;;;10.17;7.30;;;19.60;99.90;;;;;;5075621;28;20469;-71
2021/09/05 09:06:17;;;;;;;8.40;6.60;;;19.70;99.90;;;;;;5075492;28;20536;-71
2021/09/05 09:08:43;;;;;;;7.77;6.33;;;19.80;99.90;;;;;;5075428;28;20469;-71
2021/09/05 09:11:14;;;;;;;8.47;5.67;;;20.10;99.90;;;;;;5075261;28;20463;-71
2021/09/05 09:13:41;;;;;;;7.50;6.00;;;20.20;99.90;;;;;;5075613;28;20450;-72
2021/09/05 09:16:09;;;;;;;9.82;6.93;;;20.30;99.90;;;;;;5075453;28;20458;-71
2021/09/05 09:18:39;;;;;;;7.57;6.63;;;20.40;99.90;;;;;;5075182;28;20233;-71
2021/09/05 09:21:11;;;;;;;8.60;6.50;;;20.40;99.90;;;;;;5074841;28;20482;-71
2021/09/05 09:23:39;;;;;;;8.93;7.20;;;20.40;99.90;;;;;;5075070;28;20453;-70
2021/09/05 09:26:08;;;;;;;7.73;6.00;;;20.50;99.90;;;;;;5074781;28;20470;-71
2021/09/05 09:28:39;;;;;;;8.38;6.63;;;20.50;98.00;;;;;;5074716;28;20462;-71
2021/09/05 09:31:14;;;;;;;9.60;6.50;;;20.50;99.90;;;;;;5075228;28;20184;-70
2021/09/05 09:33:42;;;;;;;9.88;7.40;;;20.60;72.70;;;;;;5075321;28;20462;-72
2021/09/05 09:36:11;;;;;;;10.98;6.85;;;20.70;4.30;;;;;;5074962;28;20201;-71
2021/09/05 09:38:38;;;;;;;9.30;6.83;;;20.80;15.70;;;;;;5074768;28;20208;-71
2021/09/05 09:41:09;;;;;;;11.50;7.97;;;20.80;1.00;;;;;;5074426;28;20482;-71
2021/09/05 09:43:48;;;;;;;6.70;6.00;;;20.70;1.00;;;;;;5074567;28;20458;-72
2021/09/05 09:46:17;;;;;;;11.73;7.30;;;20.70;1.00;;;;;;5075133;28;20438;-72
2021/09/05 09:48:45;;;;;;;7.73;6.40;;;20.70;1.00;;;;;;5074917;28;20555;-71
2021/09/05 09:51:13;;;;;;;9.25;6.72;;;20.70;1.00;;;;;;5074138;28;20450;-72
2021/09/05 09:53:41;;;;;;;9.00;6.77;;;20.70;1.00;;;;;;5074792;28;20204;-70
2021/09/05 09:56:08;;;;;;;8.03;7.20;;;20.70;1.00;;;;;;5074731;28;20541;-71
2021/09/05 09:58:36;;;;;;;8.60;7.20;;;20.60;1.00;;;;;;5074741;28;20501;-70
2021/09/05 10:01:04;;;;;;;8.10;7.23;;;20.60;1.00;;;;;;5074086;28;20961;-71
2021/09/05 10:03:35;;;;;;;11.53;7.73;;;20.70;1.00;;;;;;5074286;28;20455;-70
2021/09/05 10:06:03;;;;;;;11.23;7.70;;;20.80;1.00;;;;;;5073877;28;20855;-72
2021/09/05 10:08:31;;;;;;;11.30;7.43;;;20.90;1.00;;;;;;5074625;28;20299;-70
2021/09/05 10:11:00;;;;;;;9.07;6.53;;;21.10;1.00;;;;;;5074250;28;20910;-71
2021/09/05 10:13:33;;;;;;;8.93;7.50;;;21.20;1.00;;;;;;5074178;28;20458;-71
2021/09/05 10:16:01;;;;;;;11.83;8.63;;;21.30;1.00;;;;;;5074531;28;20782;-71
2021/09/05 10:18:30;;;;;;;9.23;8.30;;;21.40;1.00;;;;;;5074319;28;20454;-71
2021/09/05 10:20:58;;;;;;;10.43;7.77;;;21.40;1.00;;;;;;5073949;28;20474;-71
2021/09/05 10:23:29;;;;;;;8.23;7.37;;;21.50;1.00;;;;;;5073878;28;20957;-71
2021/09/05 10:25:57;;;;;;;10.40;7.73;;;21.60;1.00;;;;;;5077229;28;20465;-71
2021/09/05 10:28:34;;;;;;;7.63;6.83;;;21.80;1.00;;;;;;5078621;28;20469;-71
2021/09/05 10:31:01;;;;;;;9.73;7.60;;;21.90;1.00;;;;;;5078607;28;20453;-71
2021/09/05 10:33:36;;;;;;;10.13;7.50;;;22.10;1.00;;;;;;5079619;28;20468;-71
2021/09/05 10:36:11;;;;;;;8.93;7.85;;;22.30;1.00;;;;;;5081237;28;20438;-71
2021/09/05 10:38:40;;;;;;;10.40;7.50;;;22.40;1.00;;;;;;5079896;28;20523;-71
2021/09/05 10:41:09;;;;;;;10.37;7.63;;;22.50;1.00;;;;;;5080232;28;20547;-71
2021/09/05 10:44:03;;;;;;;8.48;7.60;;;22.50;1.00;;;;;;5080595;28;20453;-71
2021/09/05 10:46:32;;;;;;;9.93;7.00;;;22.50;1.00;;;;;;5078191;28;20191;-72
2021/09/05 10:49:02;;;;;;;8.77;7.50;;;22.60;99.90;;;;;;5078707;28;20457;-72
2021/09/05 10:51:31;;;;;;;9.40;8.20;;;22.60;99.90;;;;;;5079534;28;20457;-72
2021/09/05 10:53:59;;;;;;;7.97;7.00;;;22.60;99.90;;;;;;5078664;28;20568;-72
2021/09/05 10:56:27;;;;;;;8.43;7.00;;;22.70;99.90;;;;;;5078172;28;20949;-72
2021/09/05 10:58:55;;;;;;;8.85;6.45;;;22.80;99.90;;;;;;5078483;28;20473;-72
2021/09/05 11:01:24;;;;;;;7.87;7.03;;;22.90;99.90;;;;;;5078611;28;20220;-72
2021/09/05 11:04:25;;;;;;;7.97;6.28;;;23.10;99.90;;;;;;5078412;28;20589;-72
2021/09/05 11:06:57;;;;;;;8.73;6.13;;;23.30;99.90;;;;;;5016156;28;20332;-70
2021/09/05 11:09:48;;;;;;;7.30;6.13;;;23.40;99.90;;;;;;5016236;28;20511;-71
2021/09/05 11:12:40;;;;;;;7.57;6.27;;;23.50;99.90;;;;;;5046303;28;20466;-70
2021/09/05 11:15:20;;;;;;;6.40;5.80;;;23.60;99.90;;;;;;5074396;28;20480;-71
2021/09/05 11:17:55;;;;;;;7.87;6.73;;;23.70;99.90;;;;;;5077632;28;20434;-71
2021/09/05 11:20:24;;;;;;;7.80;6.43;;;23.80;99.90;;;;;;5077529;28;20490;-71
2021/09/05 11:22:51;;;;;;;7.40;6.33;;;23.90;99.90;;;;;;5077249;28;20860;-71
2021/09/05 11:25:20;;;;;;;7.13;5.90;;;24.20;99.90;;;;;;5077560;28;20462;-71
2021/09/05 11:28:01;;;;;;;7.20;6.50;;;24.40;99.90;;;;;;5077444;28;20458;-71
2021/09/05 11:30:31;;;;;;;7.00;5.90;;;24.50;99.90;;;;;;5077495;28;20450;-71
2021/09/05 11:33:04;;;;;;;9.90;8.10;;;24.60;99.90;;;;;;5077588;28;20442;-71
2021/09/05 11:35:41;;;;;;;8.35;7.07;;;24.50;99.90;;;;;;5077406;28;20779;-71
2021/09/05 11:38:08;;;;;;;8.53;6.50;;;24.40;99.90;;;;;;5076391;28;20192;-71
2021/09/05 11:40:52;;;;;;;10.00;6.77;;;24.30;99.90;;;;;;5076668;28;20489;-71
2021/09/05 11:43:32;;;;;;;8.40;6.67;;;24.40;99.90;;;;;;5077053;28;20521;-71
2021/09/05 11:46:00;;;;;;;9.07;6.70;;;24.70;99.90;;;;;;5076729;28;20450;-71
2021/09/05 11:48:28;;;;;;;8.50;6.60;;;24.90;99.90;;;;;;5076796;28;20481;-70
2021/09/05 11:51:02;;;;;;;7.87;6.77;;;25.20;99.90;;;;;;5076366;28;20787;-71
2021/09/05 11:53:29;;;;;;;6.73;6.00;;;25.40;99.90;;;;;;5077132;28;20449;-70
2021/09/05 11:55:56;;;;;;;7.40;6.67;;;25.60;99.90;;;;;;5077274;28;20453;-70
2021/09/05 11:58:23;;;;;;;9.13;6.73;;;26.10;55.40;;;;;;5076771;28;20461;-71
2021/09/05 12:00:55;;;;;;;6.80;6.20;;;26.30;43.10;;;;;;5076804;28;20542;-71
2021/09/05 12:03:26;;;;;;;7.50;6.00;;;26.60;41.10;;;;;;5076423;28;20431;-71
2021/09/05 12:05:58;;;;;;;7.70;6.90;;;27.20;29.40;;;;;;5076125;28;20891;-71
2021/09/05 12:08:25;;;;;;;7.50;6.73;;;27.70;7.50;;;;;;5076415;28;20435;-70
2021/09/05 12:11:10;;;;;;;11.77;6.60;;;28.00;1.00;;;;;;5075714;28;20929;-71
2021/09/05 12:13:50;;;;;;;9.02;6.50;;;28.80;1.00;;;;;;5076260;28;20739;-71
2021/09/05 12:16:25;;;;;;;7.90;6.40;;;29.70;1.00;;;;;;5076089;28;20585;-71
2021/09/05 12:19:03;;;;;;;7.00;6.17;;;30.50;1.00;;;;;;5076515;28;20438;-72
2021/09/05 12:21:32;;;;;;;7.28;5.63;;;31.50;1.00;;;;;;5076625;28;20496;-71
2021/09/05 12:23:59;;;;;;;6.90;6.20;;;32.00;1.00;;;;;;5077340;28;20207;-70
2021/09/05 12:26:25;;;;;;;6.73;6.10;;;32.80;1.00;;;;;;5077456;28;20553;-71
2021/09/05 12:29:00;;;;;;;7.05;6.35;;;33.30;1.00;;;;;;5077260;28;20458;-72
2021/09/05 12:31:41;;;;;;;6.83;6.20;;;33.90;1.00;;;;;;5077227;28;20176;-70
2021/09/05 12:34:08;;;;;;;6.53;5.93;;;34.60;1.00;;;;;;5077443;28;20964;-72
2021/09/05 12:36:39;;;;;;;7.23;6.53;;;35.10;1.00;;;;;;5077430;28;20489;-71
2021/09/05 12:39:05;;;;;;;6.90;6.20;;;35.40;1.00;;;;;;5077476;28;20439;-72
2021/09/05 12:41:33;;;;;;;6.82;6.13;;;35.40;1.00;;;;;;5077689;28;20490;-72
2021/09/05 12:44:04;;;;;;;6.97;6.25;;;35.30;1.00;;;;;;5077251;28;20200;-72
2021/09/05 12:46:38;;;;;;;7.40;6.70;;;35.10;1.00;;;;;;5077309;28;20188;-72